sensor_id;sensor_type;location;lat;lon;timestamp;P1;durP1;ratioP1;P2;durP2;ratioP2
79798;SDS011;69283;48.024;11.090;2023-08-21T00:01:00;9.25;;;5.93;;
79798;SDS011;69283;48.024;11.090;2023-08-21T00:03:25;10.55;;;5.78;;
79798;SDS011;69283;48.024;11.090;2023-08-21T00:05:50;9.17;;;5.23;;
79798;SDS011;69283;48.024;11.090;2023-08-21T00:08:16;10.17;;;5.97;;
79798;SDS011;69283;48.024;11.090;2023-08-21T00:10:41;8.75;;;5.93;;
79798;SDS011;69283;48.024;11.090;2023-08-21T00:13:06;15.07;;;5.93;;
79798;SDS011;69283;48.024;11.090;2023-08-21T00:15:32;9.23;;;5.60;;
79798;SDS011;69283;48.024;11.090;2023-08-21T00:17:58;8.55;;;5.53;;
79798;SDS011;69283;48.024;11.090;2023-08-21T00:20:23;10.23;;;5.85;;
79798;SDS011;69283;48.024;11.090;2023-08-21T00:22:49;12.98;;;6.10;;
79798;SDS011;69283;48.024;11.090;2023-08-21T00:25:14;9.68;;;6.22;;
79798;SDS011;69283;48.024;11.090;2023-08-21T00:27:39;9.05;;;6.03;;
79798;SDS011;69283;48.024;11.090;2023-08-21T00:30:05;9.07;;;6.00;;
79798;SDS011;69283;48.024;11.090;2023-08-21T00:32:31;12.35;;;5.63;;
79798;SDS011;69283;48.024;11.090;2023-08-21T00:34:56;7.27;;;5.87;;
79798;SDS011;69283;48.024;11.090;2023-08-21T00:37:21;12.45;;;6.75;;
79798;SDS011;69283;48.024;11.090;2023-08-21T00:39:46;8.37;;;6.00;;
79798;SDS011;69283;48.024;11.090;2023-08-21T00:42:12;9.10;;;5.85;;
79798;SDS011;69283;48.024;11.090;2023-08-21T00:44:37;9.57;;;6.03;;
79798;SDS011;69283;48.024;11.090;2023-08-21T00:47:02;9.85;;;7.00;;
79798;SDS011;69283;48.024;11.090;2023-08-21T00:49:28;8.43;;;5.75;;
79798;SDS011;69283;48.024;11.090;2023-08-21T00:51:54;10.63;;;6.03;;
79798;SDS011;69283;48.024;11.090;2023-08-21T00:54:19;11.13;;;6.32;;
79798;SDS011;69283;48.024;11.090;2023-08-21T00:56:45;7.93;;;5.80;;
79798;SDS011;69283;48.024;11.090;2023-08-21T00:59:11;11.63;;;5.90;;
79798;SDS011;69283;48.024;11.090;2023-08-21T01:01:37;11.07;;;6.75;;
79798;SDS011;69283;48.024;11.090;2023-08-21T01:04:02;10.57;;;6.30;;
79798;SDS011;69283;48.024;11.090;2023-08-21T01:06:28;7.97;;;5.38;;
79798;SDS011;69283;48.024;11.090;2023-08-21T01:11:42;13.65;;;6.07;;
79798;SDS011;69283;48.024;11.090;2023-08-21T01:14:27;10.18;;;5.95;;
79798;SDS011;69283;48.024;11.090;2023-08-21T01:16:56;8.55;;;5.50;;
79798;SDS011;69283;48.024;11.090;2023-08-21T01:22:00;10.63;;;6.05;;
79798;SDS011;69283;48.024;11.090;2023-08-21T01:24:26;9.18;;;6.00;;
79798;SDS011;69283;48.024;11.090;2023-08-21T01:26:51;10.38;;;5.97;;
79798;SDS011;69283;48.024;11.090;2023-08-21T01:29:17;10.32;;;5.97;;
79798;SDS011;69283;48.024;11.090;2023-08-21T01:31:43;11.77;;;6.28;;
79798;SDS011;69283;48.024;11.090;2023-08-21T01:34:15;11.20;;;6.63;;
79798;SDS011;69283;48.024;11.090;2023-08-21T01:36:41;9.65;;;5.70;;
79798;SDS011;69283;48.024;11.090;2023-08-21T01:39:08;11.27;;;5.63;;
79798;SDS011;69283;48.024;11.090;2023-08-21T01:41:33;10.38;;;5.70;;
79798;SDS011;69283;48.024;11.090;2023-08-21T01:43:59;9.43;;;5.95;;
79798;SDS011;69283;48.024;11.090;2023-08-21T01:46:24;10.57;;;5.65;;
79798;SDS011;69283;48.024;11.090;2023-08-21T01:48:49;11.30;;;6.45;;
79798;SDS011;69283;48.024;11.090;2023-08-21T01:51:15;9.45;;;6.57;;
79798;SDS011;69283;48.024;11.090;2023-08-21T01:53:40;10.50;;;6.05;;
79798;SDS011;69283;48.024;11.090;2023-08-21T01:56:05;9.98;;;6.32;;
79798;SDS011;69283;48.024;11.090;2023-08-21T01:58:31;11.73;;;5.72;;
79798;SDS011;69283;48.024;11.090;2023-08-21T02:00:56;9.23;;;6.60;;
79798;SDS011;69283;48.024;11.090;2023-08-21T02:03:21;10.18;;;6.03;;
79798;SDS011;69283;48.024;11.090;2023-08-21T02:05:50;9.60;;;6.20;;
79798;SDS011;69283;48.024;11.090;2023-08-21T02:08:15;10.10;;;6.25;;
79798;SDS011;69283;48.024;11.090;2023-08-21T02:10:48;9.73;;;5.70;;
79798;SDS011;69283;48.024;11.090;2023-08-21T02:13:15;9.82;;;6.25;;
79798;SDS011;69283;48.024;11.090;2023-08-21T02:15:40;9.43;;;6.20;;
79798;SDS011;69283;48.024;11.090;2023-08-21T02:18:05;8.88;;;6.22;;
79798;SDS011;69283;48.024;11.090;2023-08-21T02:20:30;11.75;;;6.70;;
79798;SDS011;69283;48.024;11.090;2023-08-21T02:22:56;13.70;;;6.47;;
79798;SDS011;69283;48.024;11.090;2023-08-21T02:25:21;9.43;;;5.75;;
79798;SDS011;69283;48.024;11.090;2023-08-21T02:27:46;12.35;;;6.22;;
79798;SDS011;69283;48.024;11.090;2023-08-21T02:30:12;9.85;;;6.45;;
79798;SDS011;69283;48.024;11.090;2023-08-21T02:32:37;9.77;;;6.13;;
79798;SDS011;69283;48.024;11.090;2023-08-21T02:35:04;12.75;;;6.10;;
79798;SDS011;69283;48.024;11.090;2023-08-21T02:37:30;12.40;;;6.47;;
79798;SDS011;69283;48.024;11.090;2023-08-21T02:39:56;11.05;;;6.18;;
79798;SDS011;69283;48.024;11.090;2023-08-21T02:42:21;8.20;;;5.95;;
79798;SDS011;69283;48.024;11.090;2023-08-21T02:44:46;8.00;;;5.77;;
79798;SDS011;69283;48.024;11.090;2023-08-21T02:47:12;11.05;;;5.90;;
79798;SDS011;69283;48.024;11.090;2023-08-21T02:49:37;9.40;;;5.33;;
79798;SDS011;69283;48.024;11.090;2023-08-21T02:52:02;7.50;;;5.47;;
79798;SDS011;69283;48.024;11.090;2023-08-21T02:54:28;9.73;;;6.68;;
79798;SDS011;69283;48.024;11.090;2023-08-21T02:56:53;11.17;;;6.53;;
79798;SDS011;69283;48.024;11.090;2023-08-21T02:59:18;10.95;;;6.38;;
79798;SDS011;69283;48.024;11.090;2023-08-21T03:01:44;9.73;;;5.97;;
79798;SDS011;69283;48.024;11.090;2023-08-21T03:04:09;8.77;;;6.47;;
79798;SDS011;69283;48.024;11.090;2023-08-21T03:06:34;9.03;;;5.77;;
79798;SDS011;69283;48.024;11.090;2023-08-21T03:08:59;9.83;;;5.83;;
79798;SDS011;69283;48.024;11.090;2023-08-21T03:11:25;10.73;;;6.60;;
79798;SDS011;69283;48.024;11.090;2023-08-21T03:13:50;9.30;;;5.70;;
79798;SDS011;69283;48.024;11.090;2023-08-21T03:16:15;10.23;;;6.00;;
79798;SDS011;69283;48.024;11.090;2023-08-21T03:18:53;7.75;;;5.90;;
79798;SDS011;69283;48.024;11.090;2023-08-21T03:21:23;9.07;;;5.88;;
79798;SDS011;69283;48.024;11.090;2023-08-21T03:23:54;8.95;;;5.65;;
79798;SDS011;69283;48.024;11.090;2023-08-21T03:26:20;10.57;;;6.13;;
79798;SDS011;69283;48.024;11.090;2023-08-21T03:28:45;9.45;;;6.32;;
79798;SDS011;69283;48.024;11.090;2023-08-21T03:31:11;8.23;;;5.77;;
79798;SDS011;69283;48.024;11.090;2023-08-21T03:33:36;10.52;;;5.82;;
79798;SDS011;69283;48.024;11.090;2023-08-21T03:36:01;8.23;;;5.83;;
79798;SDS011;69283;48.024;11.090;2023-08-21T03:38:27;10.05;;;6.78;;
79798;SDS011;69283;48.024;11.090;2023-08-21T03:40:52;9.60;;;6.47;;
79798;SDS011;69283;48.024;11.090;2023-08-21T03:43:17;10.27;;;5.70;;
79798;SDS011;69283;48.024;11.090;2023-08-21T03:45:43;13.50;;;6.07;;
79798;SDS011;69283;48.024;11.090;2023-08-21T03:48:08;10.17;;;6.53;;
79798;SDS011;69283;48.024;11.090;2023-08-21T03:50:33;9.30;;;5.67;;
79798;SDS011;69283;48.024;11.090;2023-08-21T03:52:58;10.27;;;5.83;;
79798;SDS011;69283;48.024;11.090;2023-08-21T03:55:24;9.17;;;6.43;;
79798;SDS011;69283;48.024;11.090;2023-08-21T03:57:49;9.13;;;6.13;;
79798;SDS011;69283;48.024;11.090;2023-08-21T04:00:14;7.67;;;5.87;;
79798;SDS011;69283;48.024;11.090;2023-08-21T04:02:40;9.85;;;5.28;;
79798;SDS011;69283;48.024;11.090;2023-08-21T04:05:05;9.48;;;5.88;;
79798;SDS011;69283;48.024;11.090;2023-08-21T04:07:31;9.05;;;5.68;;
79798;SDS011;69283;48.024;11.090;2023-08-21T04:09:56;9.18;;;6.15;;
79798;SDS011;69283;48.024;11.090;2023-08-21T04:12:21;9.23;;;6.10;;
79798;SDS011;69283;48.024;11.090;2023-08-21T04:14:47;9.03;;;5.80;;
79798;SDS011;69283;48.024;11.090;2023-08-21T04:17:12;10.70;;;6.03;;
79798;SDS011;69283;48.024;11.090;2023-08-21T04:19:37;9.65;;;5.70;;
79798;SDS011;69283;48.024;11.090;2023-08-21T04:22:05;9.80;;;6.30;;
79798;SDS011;69283;48.024;11.090;2023-08-21T04:24:31;9.00;;;5.60;;
79798;SDS011;69283;48.024;11.090;2023-08-21T04:26:56;9.63;;;6.22;;
79798;SDS011;69283;48.024;11.090;2023-08-21T04:29:21;13.20;;;6.10;;
79798;SDS011;69283;48.024;11.090;2023-08-21T04:31:47;8.15;;;5.80;;
79798;SDS011;69283;48.024;11.090;2023-08-21T04:34:13;10.45;;;6.10;;
79798;SDS011;69283;48.024;11.090;2023-08-21T04:36:38;10.75;;;6.60;;
79798;SDS011;69283;48.024;11.090;2023-08-21T04:39:03;10.48;;;5.85;;
79798;SDS011;69283;48.024;11.090;2023-08-21T04:41:29;11.27;;;5.72;;
79798;SDS011;69283;48.024;11.090;2023-08-21T04:43:54;7.53;;;5.30;;
79798;SDS011;69283;48.024;11.090;2023-08-21T04:46:19;9.77;;;5.80;;
79798;SDS011;69283;48.024;11.090;2023-08-21T04:48:45;10.70;;;6.72;;
79798;SDS011;69283;48.024;11.090;2023-08-21T04:51:10;11.07;;;5.70;;
79798;SDS011;69283;48.024;11.090;2023-08-21T04:53:35;8.75;;;5.57;;
79798;SDS011;69283;48.024;11.090;2023-08-21T04:56:01;9.00;;;6.28;;
79798;SDS011;69283;48.024;11.090;2023-08-21T04:58:26;12.05;;;5.10;;
79798;SDS011;69283;48.024;11.090;2023-08-21T05:00:51;10.23;;;5.55;;
79798;SDS011;69283;48.024;11.090;2023-08-21T05:03:17;10.03;;;6.77;;
79798;SDS011;69283;48.024;11.090;2023-08-21T05:05:42;9.43;;;5.37;;
79798;SDS011;69283;48.024;11.090;2023-08-21T05:08:16;10.00;;;5.57;;
79798;SDS011;69283;48.024;11.090;2023-08-21T05:10:41;10.30;;;4.83;;
79798;SDS011;69283;48.024;11.090;2023-08-21T05:13:07;7.10;;;5.10;;
79798;SDS011;69283;48.024;11.090;2023-08-21T05:15:32;8.37;;;5.60;;
79798;SDS011;69283;48.024;11.090;2023-08-21T05:17:57;9.50;;;5.50;;
79798;SDS011;69283;48.024;11.090;2023-08-21T05:20:23;12.23;;;5.50;;
79798;SDS011;69283;48.024;11.090;2023-08-21T05:22:48;9.20;;;6.33;;
79798;SDS011;69283;48.024;11.090;2023-08-21T05:25:13;6.40;;;5.03;;
79798;SDS011;69283;48.024;11.090;2023-08-21T05:27:40;8.20;;;4.70;;
79798;SDS011;69283;48.024;11.090;2023-08-21T05:30:05;10.98;;;5.82;;
79798;SDS011;69283;48.024;11.090;2023-08-21T05:32:31;8.27;;;5.00;;
79798;SDS011;69283;48.024;11.090;2023-08-21T05:34:56;9.27;;;5.60;;
79798;SDS011;69283;48.024;11.090;2023-08-21T05:37:21;9.03;;;5.70;;
79798;SDS011;69283;48.024;11.090;2023-08-21T05:39:47;7.70;;;5.32;;
79798;SDS011;69283;48.024;11.090;2023-08-21T05:42:13;8.82;;;5.60;;
79798;SDS011;69283;48.024;11.090;2023-08-21T05:44:39;9.17;;;5.53;;
79798;SDS011;69283;48.024;11.090;2023-08-21T05:47:04;13.77;;;5.75;;
79798;SDS011;69283;48.024;11.090;2023-08-21T05:49:29;10.88;;;5.82;;
79798;SDS011;69283;48.024;11.090;2023-08-21T05:51:55;8.38;;;4.90;;
79798;SDS011;69283;48.024;11.090;2023-08-21T05:54:24;9.05;;;5.22;;
79798;SDS011;69283;48.024;11.090;2023-08-21T05:56:50;11.00;;;5.93;;
79798;SDS011;69283;48.024;11.090;2023-08-21T05:59:26;8.57;;;5.50;;
79798;SDS011;69283;48.024;11.090;2023-08-21T06:01:55;8.25;;;5.18;;
79798;SDS011;69283;48.024;11.090;2023-08-21T06:04:20;10.60;;;5.93;;
79798;SDS011;69283;48.024;11.090;2023-08-21T06:06:45;10.00;;;5.43;;
79798;SDS011;69283;48.024;11.090;2023-08-21T06:09:11;10.37;;;5.37;;
79798;SDS011;69283;48.024;11.090;2023-08-21T06:11:36;8.27;;;6.10;;
79798;SDS011;69283;48.024;11.090;2023-08-21T06:14:01;8.45;;;5.20;;
79798;SDS011;69283;48.024;11.090;2023-08-21T06:16:26;9.47;;;6.03;;
79798;SDS011;69283;48.024;11.090;2023-08-21T06:18:52;9.25;;;5.43;;
79798;SDS011;69283;48.024;11.090;2023-08-21T06:21:17;10.67;;;5.30;;
79798;SDS011;69283;48.024;11.090;2023-08-21T06:23:42;6.95;;;6.07;;
79798;SDS011;69283;48.024;11.090;2023-08-21T06:26:08;7.10;;;4.87;;
79798;SDS011;69283;48.024;11.090;2023-08-21T06:28:33;6.90;;;5.33;;
79798;SDS011;69283;48.024;11.090;2023-08-21T06:30:58;9.90;;;5.53;;
79798;SDS011;69283;48.024;11.090;2023-08-21T06:33:23;7.75;;;4.97;;
79798;SDS011;69283;48.024;11.090;2023-08-21T06:35:49;11.18;;;5.63;;
79798;SDS011;69283;48.024;11.090;2023-08-21T06:38:14;13.77;;;6.13;;
79798;SDS011;69283;48.024;11.090;2023-08-21T06:40:39;8.10;;;5.57;;
79798;SDS011;69283;48.024;11.090;2023-08-21T06:43:05;9.65;;;5.70;;
79798;SDS011;69283;48.024;11.090;2023-08-21T06:45:31;7.97;;;5.25;;
79798;SDS011;69283;48.024;11.090;2023-08-21T06:47:57;10.77;;;5.63;;
79798;SDS011;69283;48.024;11.090;2023-08-21T06:50:23;9.15;;;5.43;;
79798;SDS011;69283;48.024;11.090;2023-08-21T06:52:48;10.30;;;5.30;;
79798;SDS011;69283;48.024;11.090;2023-08-21T06:55:13;8.27;;;5.65;;
79798;SDS011;69283;48.024;11.090;2023-08-21T06:57:39;7.85;;;5.55;;
79798;SDS011;69283;48.024;11.090;2023-08-21T07:00:05;9.05;;;5.60;;
79798;SDS011;69283;48.024;11.090;2023-08-21T07:02:31;8.57;;;5.25;;
79798;SDS011;69283;48.024;11.090;2023-08-21T07:04:56;10.93;;;5.72;;
79798;SDS011;69283;48.024;11.090;2023-08-21T07:07:21;11.95;;;6.35;;
79798;SDS011;69283;48.024;11.090;2023-08-21T07:09:47;7.75;;;5.80;;
79798;SDS011;69283;48.024;11.090;2023-08-21T07:12:14;8.73;;;5.75;;
79798;SDS011;69283;48.024;11.090;2023-08-21T07:14:39;8.10;;;5.73;;
79798;SDS011;69283;48.024;11.090;2023-08-21T07:17:04;8.50;;;6.00;;
79798;SDS011;69283;48.024;11.090;2023-08-21T07:19:30;8.13;;;6.15;;
79798;SDS011;69283;48.024;11.090;2023-08-21T07:21:55;8.55;;;5.80;;
79798;SDS011;69283;48.024;11.090;2023-08-21T07:24:20;11.05;;;6.60;;
79798;SDS011;69283;48.024;11.090;2023-08-21T07:26:46;11.13;;;5.93;;
79798;SDS011;69283;48.024;11.090;2023-08-21T07:29:11;11.05;;;5.90;;
79798;SDS011;69283;48.024;11.090;2023-08-21T07:31:36;8.52;;;6.50;;
79798;SDS011;69283;48.024;11.090;2023-08-21T07:34:02;9.98;;;6.13;;
79798;SDS011;69283;48.024;11.090;2023-08-21T07:36:27;10.03;;;5.70;;
79798;SDS011;69283;48.024;11.090;2023-08-21T07:38:52;8.70;;;5.72;;
79798;SDS011;69283;48.024;11.090;2023-08-21T07:41:18;8.40;;;5.83;;
79798;SDS011;69283;48.024;11.090;2023-08-21T07:43:43;9.45;;;6.20;;
79798;SDS011;69283;48.024;11.090;2023-08-21T07:46:10;9.35;;;5.97;;
79798;SDS011;69283;48.024;11.090;2023-08-21T07:48:43;11.40;;;6.80;;
79798;SDS011;69283;48.024;11.090;2023-08-21T07:51:09;8.02;;;6.25;;
79798;SDS011;69283;48.024;11.090;2023-08-21T07:53:35;9.50;;;6.03;;
79798;SDS011;69283;48.024;11.090;2023-08-21T07:56:00;10.43;;;6.15;;
79798;SDS011;69283;48.024;11.090;2023-08-21T07:58:26;12.00;;;6.78;;
79798;SDS011;69283;48.024;11.090;2023-08-21T08:00:52;10.63;;;6.47;;
79798;SDS011;69283;48.024;11.090;2023-08-21T08:03:17;10.02;;;5.78;;
79798;SDS011;69283;48.024;11.090;2023-08-21T08:05:43;9.32;;;5.78;;
79798;SDS011;69283;48.024;11.090;2023-08-21T08:08:08;12.23;;;6.03;;
79798;SDS011;69283;48.024;11.090;2023-08-21T08:10:37;8.60;;;6.47;;
79798;SDS011;69283;48.024;11.090;2023-08-21T08:13:04;9.05;;;6.35;;
79798;SDS011;69283;48.024;11.090;2023-08-21T08:15:29;15.35;;;6.40;;
79798;SDS011;69283;48.024;11.090;2023-08-21T08:17:54;9.05;;;5.93;;
79798;SDS011;69283;48.024;11.090;2023-08-21T08:20:20;17.35;;;7.10;;
79798;SDS011;69283;48.024;11.090;2023-08-21T08:22:45;10.30;;;6.40;;
79798;SDS011;69283;48.024;11.090;2023-08-21T08:25:10;10.60;;;6.57;;
79798;SDS011;69283;48.024;11.090;2023-08-21T08:27:36;10.80;;;6.88;;
79798;SDS011;69283;48.024;11.090;2023-08-21T08:30:02;11.50;;;6.55;;
79798;SDS011;69283;48.024;11.090;2023-08-21T08:32:28;9.35;;;6.30;;
79798;SDS011;69283;48.024;11.090;2023-08-21T08:34:53;14.77;;;7.05;;
79798;SDS011;69283;48.024;11.090;2023-08-21T08:37:19;10.27;;;6.40;;
79798;SDS011;69283;48.024;11.090;2023-08-21T08:39:47;9.90;;;6.25;;
79798;SDS011;69283;48.024;11.090;2023-08-21T08:42:16;11.88;;;7.18;;
79798;SDS011;69283;48.024;11.090;2023-08-21T08:44:42;11.52;;;6.90;;
79798;SDS011;69283;48.024;11.090;2023-08-21T08:47:09;13.40;;;6.18;;
79798;SDS011;69283;48.024;11.090;2023-08-21T08:52:02;11.23;;;6.47;;
79798;SDS011;69283;48.024;11.090;2023-08-21T08:54:27;10.18;;;6.55;;
79798;SDS011;69283;48.024;11.090;2023-08-21T08:56:54;10.23;;;6.97;;
79798;SDS011;69283;48.024;11.090;2023-08-21T08:59:20;10.98;;;6.85;;
79798;SDS011;69283;48.024;11.090;2023-08-21T09:01:45;12.90;;;7.18;;
79798;SDS011;69283;48.024;11.090;2023-08-21T09:04:11;11.02;;;6.95;;
79798;SDS011;69283;48.024;11.090;2023-08-21T09:06:36;10.15;;;6.88;;
79798;SDS011;69283;48.024;11.090;2023-08-21T09:09:02;11.10;;;7.20;;
79798;SDS011;69283;48.024;11.090;2023-08-21T09:11:28;12.80;;;6.93;;
79798;SDS011;69283;48.024;11.090;2023-08-21T09:13:53;12.32;;;6.93;;
79798;SDS011;69283;48.024;11.090;2023-08-21T09:16:20;12.73;;;7.15;;
79798;SDS011;69283;48.024;11.090;2023-08-21T09:18:50;11.05;;;7.20;;
79798;SDS011;69283;48.024;11.090;2023-08-21T09:21:19;9.38;;;6.82;;
79798;SDS011;69283;48.024;11.090;2023-08-21T09:23:46;12.32;;;6.88;;
79798;SDS011;69283;48.024;11.090;2023-08-21T09:26:18;13.65;;;6.85;;
79798;SDS011;69283;48.024;11.090;2023-08-21T09:28:48;12.63;;;7.70;;
79798;SDS011;69283;48.024;11.090;2023-08-21T09:31:14;9.07;;;6.80;;
79798;SDS011;69283;48.024;11.090;2023-08-21T09:33:39;11.82;;;6.70;;
79798;SDS011;69283;48.024;11.090;2023-08-21T09:36:05;13.20;;;7.65;;
79798;SDS011;69283;48.024;11.090;2023-08-21T09:38:30;9.33;;;7.07;;
79798;SDS011;69283;48.024;11.090;2023-08-21T09:40:55;10.93;;;6.53;;
79798;SDS011;69283;48.024;11.090;2023-08-21T09:43:21;11.90;;;6.97;;
79798;SDS011;69283;48.024;11.090;2023-08-21T09:45:48;8.15;;;6.45;;
79798;SDS011;69283;48.024;11.090;2023-08-21T09:48:21;9.45;;;6.60;;
79798;SDS011;69283;48.024;11.090;2023-08-21T09:50:48;11.13;;;6.32;;
79798;SDS011;69283;48.024;11.090;2023-08-21T09:53:16;8.35;;;6.88;;
79798;SDS011;69283;48.024;11.090;2023-08-21T09:55:41;8.13;;;5.55;;
79798;SDS011;69283;48.024;11.090;2023-08-21T09:58:07;8.57;;;5.43;;
79798;SDS011;69283;48.024;11.090;2023-08-21T10:00:34;10.90;;;5.30;;
79798;SDS011;69283;48.024;11.090;2023-08-21T10:05:28;8.60;;;5.78;;
79798;SDS011;69283;48.024;11.090;2023-08-21T10:07:55;10.00;;;5.60;;
79798;SDS011;69283;48.024;11.090;2023-08-21T10:10:21;6.47;;;4.30;;
79798;SDS011;69283;48.024;11.090;2023-08-21T10:12:47;5.47;;;3.90;;
79798;SDS011;69283;48.024;11.090;2023-08-21T10:17:39;6.32;;;4.60;;
79798;SDS011;69283;48.024;11.090;2023-08-21T10:20:05;5.75;;;4.43;;
79798;SDS011;69283;48.024;11.090;2023-08-21T10:22:48;9.15;;;5.20;;
79798;SDS011;69283;48.024;11.090;2023-08-21T10:25:15;8.18;;;5.90;;
79798;SDS011;69283;48.024;11.090;2023-08-21T10:27:56;6.55;;;4.68;;
79798;SDS011;69283;48.024;11.090;2023-08-21T10:30:23;6.97;;;4.40;;
79798;SDS011;69283;48.024;11.090;2023-08-21T10:32:50;6.35;;;4.50;;
79798;SDS011;69283;48.024;11.090;2023-08-21T10:35:23;9.00;;;5.00;;
79798;SDS011;69283;48.024;11.090;2023-08-21T10:40:32;7.53;;;4.40;;
79798;SDS011;69283;48.024;11.090;2023-08-21T10:42:58;5.93;;;4.50;;
79798;SDS011;69283;48.024;11.090;2023-08-21T10:45:24;9.00;;;4.82;;
79798;SDS011;69283;48.024;11.090;2023-08-21T10:47:49;7.70;;;5.22;;
79798;SDS011;69283;48.024;11.090;2023-08-21T10:50:15;6.40;;;4.75;;
79798;SDS011;69283;48.024;11.090;2023-08-21T10:52:42;6.47;;;5.03;;
79798;SDS011;69283;48.024;11.090;2023-08-21T10:55:11;7.00;;;5.05;;
79798;SDS011;69283;48.024;11.090;2023-08-21T10:57:38;7.40;;;5.18;;
79798;SDS011;69283;48.024;11.090;2023-08-21T11:00:06;6.65;;;4.38;;
79798;SDS011;69283;48.024;11.090;2023-08-21T11:02:37;6.93;;;4.43;;
79798;SDS011;69283;48.024;11.090;2023-08-21T11:05:07;7.35;;;4.57;;
79798;SDS011;69283;48.024;11.090;2023-08-21T11:07:43;8.70;;;5.10;;
79798;SDS011;69283;48.024;11.090;2023-08-21T11:10:11;8.13;;;4.70;;
79798;SDS011;69283;48.024;11.090;2023-08-21T11:12:39;9.07;;;4.68;;
79798;SDS011;69283;48.024;11.090;2023-08-21T11:15:17;5.95;;;4.95;;
79798;SDS011;69283;48.024;11.090;2023-08-21T11:17:50;8.85;;;5.05;;
79798;SDS011;69283;48.024;11.090;2023-08-21T11:20:34;7.82;;;5.07;;
79798;SDS011;69283;48.024;11.090;2023-08-21T11:23:00;8.20;;;5.47;;
79798;SDS011;69283;48.024;11.090;2023-08-21T11:25:31;6.03;;;5.05;;
79798;SDS011;69283;48.024;11.090;2023-08-21T11:27:57;10.00;;;5.38;;
79798;SDS011;69283;48.024;11.090;2023-08-21T11:30:23;10.60;;;5.60;;
79798;SDS011;69283;48.024;11.090;2023-08-21T11:32:49;9.27;;;5.68;;
79798;SDS011;69283;48.024;11.090;2023-08-21T11:35:28;6.85;;;5.68;;
79798;SDS011;69283;48.024;11.090;2023-08-21T11:37:54;7.03;;;5.00;;
79798;SDS011;69283;48.024;11.090;2023-08-21T11:40:19;8.00;;;5.50;;
79798;SDS011;69283;48.024;11.090;2023-08-21T11:42:44;9.13;;;5.43;;
79798;SDS011;69283;48.024;11.090;2023-08-21T11:45:10;10.10;;;4.93;;
79798;SDS011;69283;48.024;11.090;2023-08-21T11:47:36;10.70;;;5.88;;
79798;SDS011;69283;48.024;11.090;2023-08-21T11:50:02;6.75;;;5.60;;
79798;SDS011;69283;48.024;11.090;2023-08-21T11:52:29;8.25;;;5.22;;
79798;SDS011;69283;48.024;11.090;2023-08-21T11:54:56;8.05;;;5.38;;
79798;SDS011;69283;48.024;11.090;2023-08-21T11:57:22;7.65;;;5.60;;
79798;SDS011;69283;48.024;11.090;2023-08-21T11:59:51;11.05;;;5.32;;
79798;SDS011;69283;48.024;11.090;2023-08-21T12:02:18;7.20;;;5.65;;
79798;SDS011;69283;48.024;11.090;2023-08-21T12:04:54;6.60;;;5.25;;
79798;SDS011;69283;48.024;11.090;2023-08-21T12:07:27;8.98;;;5.55;;
79798;SDS011;69283;48.024;11.090;2023-08-21T12:09:54;7.35;;;5.15;;
79798;SDS011;69283;48.024;11.090;2023-08-21T12:14:45;7.60;;;5.00;;
79798;SDS011;69283;48.024;11.090;2023-08-21T12:17:10;9.05;;;5.22;;
79798;SDS011;69283;48.024;11.090;2023-08-21T12:19:35;7.80;;;5.27;;
79798;SDS011;69283;48.024;11.090;2023-08-21T12:22:01;8.18;;;5.85;;
79798;SDS011;69283;48.024;11.090;2023-08-21T12:24:27;9.88;;;5.40;;
79798;SDS011;69283;48.024;11.090;2023-08-21T12:26:52;6.50;;;4.88;;
79798;SDS011;69283;48.024;11.090;2023-08-21T12:29:17;8.33;;;5.37;;
79798;SDS011;69283;48.024;11.090;2023-08-21T12:31:43;11.90;;;5.10;;
79798;SDS011;69283;48.024;11.090;2023-08-21T12:34:08;7.18;;;5.03;;
79798;SDS011;69283;48.024;11.090;2023-08-21T12:36:34;9.70;;;5.10;;
79798;SDS011;69283;48.024;11.090;2023-08-21T12:39:02;6.95;;;4.30;;
79798;SDS011;69283;48.024;11.090;2023-08-21T12:41:28;9.43;;;5.60;;
79798;SDS011;69283;48.024;11.090;2023-08-21T12:43:54;8.07;;;4.75;;
79798;SDS011;69283;48.024;11.090;2023-08-21T12:46:19;5.67;;;4.57;;
79798;SDS011;69283;48.024;11.090;2023-08-21T12:48:44;7.57;;;4.45;;
79798;SDS011;69283;48.024;11.090;2023-08-21T12:51:10;5.90;;;4.70;;
79798;SDS011;69283;48.024;11.090;2023-08-21T12:53:35;7.45;;;5.38;;
79798;SDS011;69283;48.024;11.090;2023-08-21T12:56:01;8.27;;;5.55;;
79798;SDS011;69283;48.024;11.090;2023-08-21T12:58:26;7.33;;;5.27;;
79798;SDS011;69283;48.024;11.090;2023-08-21T13:00:52;8.05;;;5.18;;
79798;SDS011;69283;48.024;11.090;2023-08-21T13:03:17;8.35;;;5.10;;
79798;SDS011;69283;48.024;11.090;2023-08-21T13:05:43;9.57;;;5.38;;
79798;SDS011;69283;48.024;11.090;2023-08-21T13:08:08;7.72;;;5.45;;
79798;SDS011;69283;48.024;11.090;2023-08-21T13:10:33;7.85;;;5.30;;
79798;SDS011;69283;48.024;11.090;2023-08-21T13:12:59;7.35;;;4.93;;
79798;SDS011;69283;48.024;11.090;2023-08-21T13:15:24;8.33;;;5.47;;
79798;SDS011;69283;48.024;11.090;2023-08-21T13:17:49;7.35;;;5.13;;
79798;SDS011;69283;48.024;11.090;2023-08-21T13:20:15;8.13;;;5.50;;
79798;SDS011;69283;48.024;11.090;2023-08-21T13:22:43;9.82;;;5.28;;
79798;SDS011;69283;48.024;11.090;2023-08-21T13:25:17;7.43;;;4.00;;
79798;SDS011;69283;48.024;11.090;2023-08-21T13:27:43;6.53;;;4.10;;
79798;SDS011;69283;48.024;11.090;2023-08-21T13:30:08;10.15;;;4.35;;
79798;SDS011;69283;48.024;11.090;2023-08-21T13:32:34;6.43;;;4.85;;
79798;SDS011;69283;48.024;11.090;2023-08-21T13:34:59;8.77;;;5.40;;
79798;SDS011;69283;48.024;11.090;2023-08-21T13:37:25;8.18;;;5.22;;
79798;SDS011;69283;48.024;11.090;2023-08-21T13:39:51;10.25;;;5.68;;
79798;SDS011;69283;48.024;11.090;2023-08-21T13:42:17;8.43;;;5.57;;
79798;SDS011;69283;48.024;11.090;2023-08-21T13:44:42;10.47;;;6.30;;
79798;SDS011;69283;48.024;11.090;2023-08-21T13:47:07;7.40;;;6.03;;
79798;SDS011;69283;48.024;11.090;2023-08-21T13:49:32;9.60;;;5.17;;
79798;SDS011;69283;48.024;11.090;2023-08-21T13:51:58;8.80;;;5.82;;
79798;SDS011;69283;48.024;11.090;2023-08-21T13:54:23;9.20;;;5.57;;
79798;SDS011;69283;48.024;11.090;2023-08-21T13:56:48;7.93;;;5.40;;
79798;SDS011;69283;48.024;11.090;2023-08-21T13:59:14;9.30;;;4.75;;
79798;SDS011;69283;48.024;11.090;2023-08-21T14:01:39;7.10;;;5.82;;
79798;SDS011;69283;48.024;11.090;2023-08-21T14:04:04;8.50;;;5.43;;
79798;SDS011;69283;48.024;11.090;2023-08-21T14:06:29;13.93;;;5.68;;
79798;SDS011;69283;48.024;11.090;2023-08-21T14:08:55;12.85;;;5.15;;
79798;SDS011;69283;48.024;11.090;2023-08-21T14:11:20;9.82;;;5.85;;
79798;SDS011;69283;48.024;11.090;2023-08-21T14:13:45;8.70;;;5.40;;
79798;SDS011;69283;48.024;11.090;2023-08-21T14:16:11;10.13;;;5.60;;
79798;SDS011;69283;48.024;11.090;2023-08-21T14:18:36;8.18;;;5.15;;
79798;SDS011;69283;48.024;11.090;2023-08-21T14:21:02;7.30;;;5.63;;
79798;SDS011;69283;48.024;11.090;2023-08-21T14:23:27;9.68;;;5.35;;
79798;SDS011;69283;48.024;11.090;2023-08-21T14:25:52;9.48;;;5.35;;
79798;SDS011;69283;48.024;11.090;2023-08-21T14:28:18;9.82;;;5.70;;
79798;SDS011;69283;48.024;11.090;2023-08-21T14:30:43;9.40;;;5.10;;
79798;SDS011;69283;48.024;11.090;2023-08-21T14:33:10;8.52;;;5.30;;
79798;SDS011;69283;48.024;11.090;2023-08-21T14:35:35;8.10;;;5.20;;
79798;SDS011;69283;48.024;11.090;2023-08-21T14:38:01;7.22;;;4.47;;
79798;SDS011;69283;48.024;11.090;2023-08-21T14:40:27;9.27;;;5.20;;
79798;SDS011;69283;48.024;11.090;2023-08-21T14:42:52;9.30;;;6.10;;